createdAt,value
2018-05-01T00:00:46.959Z,0.00
2018-05-01T00:01:47.106Z,0.00
2018-05-01T00:02:47.255Z,0.00
2018-05-01T00:03:47.404Z,0.00
2018-05-01T00:04:47.554Z,0.00
2018-05-01T00:05:47.705Z,0.00
2018-05-01T00:06:47.858Z,0.00
2018-05-01T00:07:48.008Z,0.00
2018-05-01T00:08:48.158Z,0.00
2018-05-01T00:09:48.311Z,0.00
2018-05-01T00:10:48.451Z,0.00
2018-05-01T00:11:48.613Z,0.00
2018-05-01T00:12:48.762Z,0.00
2018-05-01T00:13:48.911Z,0.00
2018-05-01T00:14:49.060Z,0.00
2018-05-01T00:15:49.210Z,0.00
2018-05-01T00:16:49.360Z,0.00
2018-05-01T00:17:49.508Z,0.00
2018-05-01T00:18:49.658Z,0.00
2018-05-01T00:19:49.806Z,0.00
2018-05-01T00:20:49.955Z,0.00
2018-05-01T00:21:50.106Z,0.00
2018-05-01T00:22:50.253Z,0.00
2018-05-01T00:23:50.405Z,0.00
2018-05-01T00:24:50.557Z,0.00
2018-05-01T00:25:50.705Z,0.00
2018-05-01T00:26:50.856Z,0.00
2018-05-01T00:27:51.003Z,0.00
2018-05-01T00:28:51.152Z,0.00
2018-05-01T00:29:51.296Z,0.00
2018-05-01T00:30:51.443Z,0.00
2018-05-01T00:31:51.591Z,0.00
2018-05-01T00:32:51.740Z,0.00
2018-05-01T00:33:51.911Z,0.00
2018-05-01T00:34:52.060Z,0.00
2018-05-01T00:35:52.209Z,0.00
2018-05-01T00:36:52.355Z,0.00
2018-05-01T00:37:52.505Z,0.00
2018-05-01T00:38:52.655Z,0.00
2018-05-01T00:39:52.804Z,0.00
2018-05-01T00:40:52.950Z,0.00
2018-05-01T00:41:53.100Z,0.00
2018-05-01T00:42:53.248Z,0.00
2018-05-01T00:43:53.397Z,0.00
2018-05-01T00:44:53.549Z,0.00
2018-05-01T00:45:53.699Z,0.00
2018-05-01T00:46:53.850Z,0.00
2018-05-01T00:47:54.000Z,0.00
2018-05-01T00:48:54.149Z,0.00
2018-05-01T00:49:54.301Z,0.00
2018-05-01T00:50:54.443Z,0.00
2018-05-01T00:51:54.591Z,0.00
2018-05-01T00:52:54.740Z,0.00
2018-05-01T00:53:54.890Z,0.00
2018-05-01T00:54:55.041Z,0.00
2018-05-01T00:55:55.187Z,0.00
2018-05-01T00:56:55.339Z,0.00
2018-05-01T00:57:55.488Z,0.00
2018-05-01T00:58:55.638Z,0.00
2018-05-01T00:59:55.790Z,0.00
2018-05-01T01:00:55.937Z,0.00
2018-05-01T01:01:56.087Z,0.00
2018-05-01T01:02:56.237Z,0.00
2018-05-01T01:03:56.387Z,0.00
2018-05-01T01:04:56.534Z,0.00
2018-05-01T01:05:56.684Z,0.00
2018-05-01T01:06:56.837Z,0.00
2018-05-01T01:07:56.985Z,0.00
2018-05-01T01:08:57.133Z,0.00
2018-05-01T01:09:57.284Z,0.00
2018-05-01T01:10:57.436Z,0.00
2018-05-01T01:11:57.580Z,0.00
2018-05-01T01:12:57.730Z,0.00
2018-05-01T01:13:57.877Z,0.00
2018-05-01T01:14:58.028Z,0.00
2018-05-01T01:15:58.180Z,0.00
2018-05-01T01:16:58.326Z,0.00
2018-05-01T01:17:58.477Z,0.00
2018-05-01T01:18:58.625Z,0.00
2018-05-01T01:19:58.776Z,0.00
2018-05-01T01:20:58.927Z,0.00
2018-05-01T01:21:59.074Z,0.00
2018-05-01T01:22:59.224Z,0.00
2018-05-01T01:23:59.373Z,0.00
2018-05-01T01:24:59.522Z,0.00
2018-05-01T01:25:59.669Z,0.00
2018-05-01T01:26:59.821Z,0.00
2018-05-01T01:27:59.969Z,0.00
2018-05-01T01:29:00.118Z,0.00
2018-05-01T01:30:00.265Z,0.00
2018-05-01T01:31:00.417Z,0.00
2018-05-01T01:32:00.565Z,0.00
2018-05-01T01:33:00.712Z,0.00
2018-05-01T01:34:00.862Z,0.00
2018-05-01T01:35:01.012Z,0.00
2018-05-01T01:36:01.159Z,0.00
2018-05-01T01:37:01.307Z,0.00
2018-05-01T01:38:01.460Z,0.00
2018-05-01T01:39:01.607Z,0.00
2018-05-01T01:40:01.754Z,0.00
2018-05-01T01:41:01.905Z,0.00
2018-05-01T01:42:02.053Z,0.00
2018-05-01T01:43:02.200Z,0.00
2018-05-01T01:44:02.350Z,0.00
2018-05-01T01:45:02.497Z,0.00
2018-05-01T01:46:02.646Z,0.00
2018-05-01T01:47:02.798Z,0.00
2018-05-01T01:48:02.944Z,0.00
2018-05-01T01:49:03.099Z,0.00
2018-05-01T01:50:03.242Z,0.00
2018-05-01T01:51:03.392Z,0.00
2018-05-01T01:52:03.540Z,0.00
2018-05-01T01:53:03.688Z,0.00
2018-05-01T01:54:03.836Z,0.00
2018-05-01T01:55:03.984Z,0.00
2018-05-01T01:56:04.134Z,0.00
2018-05-01T01:57:04.283Z,0.00
2018-05-01T01:58:04.427Z,0.00
2018-05-01T01:59:04.575Z,0.00
2018-05-01T02:00:04.720Z,0.00
2018-05-01T02:01:04.869Z,0.00
2018-05-01T02:02:05.019Z,0.00
2018-05-01T02:03:05.164Z,0.00
2018-05-01T02:04:05.315Z,0.00
2018-05-01T02:05:05.550Z,0.00
2018-05-01T02:06:05.608Z,0.00
2018-05-01T02:07:05.759Z,0.00
2018-05-01T02:08:05.912Z,0.00
2018-05-01T02:09:06.054Z,0.00
2018-05-01T02:10:06.202Z,0.00
2018-05-01T02:11:06.351Z,0.00
2018-05-01T02:12:06.500Z,0.00
2018-05-01T02:13:06.646Z,0.00
2018-05-01T02:14:06.796Z,0.00
2018-05-01T02:15:06.945Z,0.00
2018-05-01T02:16:07.096Z,0.00
2018-05-01T02:17:07.244Z,0.00
2018-05-01T02:18:07.392Z,0.00
2018-05-01T02:19:07.538Z,0.00
2018-05-01T02:20:07.688Z,0.00
2018-05-01T02:21:07.837Z,0.00
2018-05-01T02:22:07.990Z,0.00
2018-05-01T02:23:08.133Z,0.00
2018-05-01T02:24:08.281Z,0.00
2018-05-01T02:25:08.429Z,0.00
2018-05-01T02:26:08.576Z,0.00
2018-05-01T02:27:08.726Z,0.00
2018-05-01T02:28:08.874Z,0.00
2018-05-01T02:29:09.023Z,0.00
2018-05-01T02:30:09.171Z,0.00
2018-05-01T02:31:09.334Z,0.00
2018-05-01T02:32:09.466Z,0.00
2018-05-01T02:33:09.616Z,0.00
2018-05-01T02:34:09.764Z,0.00
2018-05-01T02:35:09.910Z,0.00
2018-05-01T02:36:10.061Z,0.00
2018-05-01T02:37:10.209Z,0.00
2018-05-01T02:38:10.358Z,0.00
2018-05-01T02:39:10.504Z,0.00
2018-05-01T02:40:10.652Z,0.00
2018-05-01T02:41:10.860Z,0.00
2018-05-01T02:42:10.947Z,0.00
2018-05-01T02:43:11.093Z,0.00
2018-05-01T02:44:11.243Z,0.00
2018-05-01T02:45:11.392Z,0.00
2018-05-01T02:46:11.538Z,0.00
2018-05-01T02:47:11.689Z,0.00
2018-05-01T02:48:11.833Z,0.00
2018-05-01T02:49:11.983Z,0.00
2018-05-01T02:50:12.135Z,0.00
2018-05-01T02:51:12.275Z,0.00
2018-05-01T02:52:12.422Z,0.00
2018-05-01T02:53:12.572Z,0.00
2018-05-01T02:54:12.722Z,0.00
2018-05-01T02:55:12.867Z,0.00
2018-05-01T02:56:13.018Z,0.00
2018-05-01T02:57:13.164Z,0.00
2018-05-01T02:58:13.312Z,0.00
2018-05-01T02:59:13.462Z,0.00
2018-05-01T03:00:13.608Z,0.00
2018-05-01T03:01:13.756Z,0.00
2018-05-01T03:02:13.905Z,0.00
2018-05-01T03:03:14.052Z,0.00
2018-05-01T03:04:14.199Z,0.00
2018-05-01T03:05:14.348Z,0.00
2018-05-01T03:06:14.496Z,0.00
2018-05-01T03:07:14.643Z,0.00
2018-05-01T03:08:14.793Z,0.00
2018-05-01T03:09:14.949Z,0.00
2018-05-01T03:10:15.089Z,0.00
2018-05-01T03:11:15.236Z,0.00
2018-05-01T03:12:15.386Z,0.00
2018-05-01T03:13:15.532Z,0.00
2018-05-01T03:14:15.682Z,0.00
2018-05-01T03:15:15.831Z,0.00
2018-05-01T03:16:15.977Z,0.00
2018-05-01T03:17:16.126Z,0.00
2018-05-01T03:18:16.274Z,0.00
2018-05-01T03:19:16.422Z,0.00
2018-05-01T03:20:16.572Z,0.00
2018-05-01T03:21:16.718Z,0.00
2018-05-01T03:22:16.867Z,0.00
2018-05-01T03:23:17.021Z,0.00
2018-05-01T03:24:17.163Z,0.00
2018-05-01T03:25:17.373Z,0.00
2018-05-01T03:26:17.458Z,0.00
2018-05-01T03:27:17.605Z,0.00
2018-05-01T03:28:17.752Z,0.00
2018-05-01T03:29:17.900Z,0.00
2018-05-01T03:30:18.048Z,0.00
2018-05-01T03:31:18.194Z,0.00
2018-05-01T03:32:18.342Z,0.00
2018-05-01T03:33:18.491Z,0.00
2018-05-01T03:34:18.639Z,0.00
2018-05-01T03:35:18.785Z,0.00
2018-05-01T03:36:18.934Z,0.00
2018-05-01T03:37:19.081Z,0.00
2018-05-01T03:38:19.231Z,0.00
2018-05-01T03:39:19.435Z,0.00
2018-05-01T03:40:19.525Z,0.00
2018-05-01T03:41:19.672Z,0.00
2018-05-01T03:42:19.820Z,0.00
2018-05-01T03:43:19.970Z,0.00
2018-05-01T03:44:20.115Z,0.00
2018-05-01T03:45:20.264Z,0.00
2018-05-01T03:46:20.410Z,0.00
2018-05-01T03:47:20.558Z,0.00
2018-05-01T03:48:20.705Z,0.00
2018-05-01T03:49:20.854Z,0.00
2018-05-01T03:50:21.001Z,0.00
2018-05-01T03:51:21.148Z,0.00
2018-05-01T03:52:21.298Z,0.00
2018-05-01T03:53:21.444Z,0.00
2018-05-01T03:54:21.593Z,0.00
2018-05-01T03:55:21.741Z,0.00
2018-05-01T03:56:21.890Z,0.00
2018-05-01T03:57:22.040Z,0.00
2018-05-01T03:58:22.189Z,0.00
2018-05-01T03:59:22.335Z,0.00
2018-05-01T04:00:22.484Z,0.00
2018-05-01T04:01:22.632Z,0.00
2018-05-01T04:02:22.881Z,0.00
2018-05-01T04:03:22.927Z,0.00
2018-05-01T04:04:23.072Z,0.00
2018-05-01T04:05:23.221Z,0.00
2018-05-01T04:06:23.369Z,0.00
2018-05-01T04:07:23.516Z,0.00
2018-05-01T04:08:23.665Z,0.00
2018-05-01T04:09:23.843Z,0.00
2018-05-01T04:10:23.967Z,0.00
2018-05-01T04:11:24.112Z,5.63
2018-05-01T04:12:24.264Z,5.63
2018-05-01T04:13:24.409Z,5.63
2018-05-01T04:14:24.559Z,5.63
2018-05-01T04:15:24.710Z,5.63
2018-05-01T04:16:24.856Z,5.63
2018-05-01T04:17:25.011Z,5.63
2018-05-01T04:18:25.154Z,5.63
2018-05-01T04:19:25.300Z,5.63
2018-05-01T04:20:25.449Z,5.63
2018-05-01T04:21:25.599Z,5.63
2018-05-01T04:22:25.743Z,5.63
2018-05-01T04:23:25.891Z,5.63
2018-05-01T04:24:26.047Z,11.25
2018-05-01T04:25:26.232Z,11.25
2018-05-01T04:26:26.336Z,11.25
2018-05-01T04:27:26.484Z,11.25
2018-05-01T04:28:26.631Z,16.88
2018-05-01T04:29:26.780Z,16.88
2018-05-01T04:30:26.933Z,22.50
2018-05-01T04:31:27.076Z,16.88
2018-05-01T04:32:27.224Z,16.88
2018-05-01T04:33:27.374Z,16.88
2018-05-01T04:34:27.521Z,16.88
2018-05-01T04:35:27.668Z,16.88
2018-05-01T04:36:27.824Z,22.50
2018-05-01T04:37:27.967Z,22.50
2018-05-01T04:38:28.116Z,22.50
2018-05-01T04:39:28.263Z,22.50
2018-05-01T04:40:28.411Z,22.50
2018-05-01T04:41:28.557Z,22.50
2018-05-01T04:42:28.709Z,22.50
2018-05-01T04:43:28.853Z,22.50
2018-05-01T04:44:29.000Z,22.50
2018-05-01T04:45:29.149Z,22.50
2018-05-01T04:46:29.293Z,28.13
2018-05-01T04:47:29.459Z,28.13
2018-05-01T04:48:29.591Z,28.13
2018-05-01T04:49:29.739Z,28.13
2018-05-01T04:50:29.888Z,33.75
2018-05-01T04:51:30.037Z,39.38
2018-05-01T04:52:30.185Z,45.00
2018-05-01T04:53:30.335Z,50.63
2018-05-01T04:54:30.481Z,56.25
2018-05-01T04:55:30.631Z,67.50
2018-05-01T04:56:30.777Z,78.75
2018-05-01T04:57:30.926Z,90.00
2018-05-01T04:58:31.144Z,101.25
2018-05-01T04:59:31.222Z,112.50
2018-05-01T05:00:31.372Z,118.13
2018-05-01T05:01:31.517Z,118.13
2018-05-01T05:02:31.668Z,129.38
2018-05-01T05:03:31.814Z,146.25
2018-05-01T05:04:31.962Z,168.75
2018-05-01T05:05:32.110Z,185.63
2018-05-01T05:06:32.266Z,196.88
2018-05-01T05:07:32.406Z,213.75
2018-05-01T05:08:32.551Z,213.75
2018-05-01T05:09:32.719Z,230.63
2018-05-01T05:10:32.854Z,258.75
2018-05-01T05:11:32.998Z,241.88
2018-05-01T05:12:33.150Z,236.25
2018-05-01T05:13:33.300Z,281.25
2018-05-01T05:14:33.447Z,241.88
2018-05-01T05:15:33.594Z,281.25
2018-05-01T05:16:33.743Z,241.88
2018-05-01T05:17:33.893Z,264.38
2018-05-01T05:18:34.045Z,213.75
2018-05-01T05:19:34.191Z,236.25
2018-05-01T05:20:34.342Z,264.38
2018-05-01T05:21:34.489Z,247.50
2018-05-01T05:22:34.636Z,230.63
2018-05-01T05:23:34.787Z,253.13
2018-05-01T05:24:34.935Z,225.00
2018-05-01T05:25:35.087Z,225.00
2018-05-01T05:26:35.230Z,219.38
2018-05-01T05:27:35.381Z,202.50
2018-05-01T05:28:35.536Z,174.38
2018-05-01T05:29:35.675Z,191.25
2018-05-01T05:30:35.822Z,151.88
2018-05-01T05:31:35.972Z,140.63
2018-05-01T05:32:36.122Z,151.88
2018-05-01T05:33:36.273Z,146.25
2018-05-01T05:34:36.416Z,146.25
2018-05-01T05:35:36.566Z,151.88
2018-05-01T05:36:36.717Z,129.38
2018-05-01T05:37:36.867Z,123.75
2018-05-01T05:38:37.018Z,123.75
2018-05-01T05:39:37.164Z,123.75
2018-05-01T05:40:37.317Z,135.00
2018-05-01T05:41:37.465Z,146.25
2018-05-01T05:42:37.614Z,174.38
2018-05-01T05:43:37.763Z,174.38
2018-05-01T05:44:37.911Z,174.38
2018-05-01T05:45:38.059Z,185.63
2018-05-01T05:46:38.209Z,196.88
2018-05-01T05:47:38.358Z,230.63
2018-05-01T05:48:38.507Z,253.13
2018-05-01T05:49:38.659Z,275.63
2018-05-01T05:50:38.803Z,258.75
2018-05-01T05:51:38.952Z,264.38
2018-05-01T05:52:39.101Z,270.00
2018-05-01T05:53:39.257Z,253.13
2018-05-01T05:54:39.399Z,241.88
2018-05-01T05:55:39.548Z,213.75
2018-05-01T05:56:39.701Z,213.75
2018-05-01T05:57:39.847Z,258.75
2018-05-01T05:58:39.998Z,292.50
2018-05-01T05:59:40.146Z,343.13
2018-05-01T06:00:40.294Z,388.13
2018-05-01T06:01:40.445Z,393.75
2018-05-01T06:02:40.594Z,382.50
2018-05-01T06:03:40.744Z,337.50
2018-05-01T06:04:40.890Z,320.63
2018-05-01T06:05:41.042Z,315.00
2018-05-01T06:06:41.189Z,275.63
2018-05-01T06:07:41.381Z,258.75
2018-05-01T06:08:41.488Z,275.63
2018-05-01T06:09:41.634Z,286.88
2018-05-01T06:10:41.783Z,298.13
2018-05-01T06:11:41.932Z,315.00
2018-05-01T06:12:42.082Z,315.00
2018-05-01T06:13:42.307Z,331.88
2018-05-01T06:14:42.380Z,348.75
2018-05-01T06:15:42.533Z,320.63
2018-05-01T06:16:42.679Z,253.13
2018-05-01T06:17:42.831Z,202.50
2018-05-01T06:18:42.980Z,196.88
2018-05-01T06:19:43.128Z,236.25
2018-05-01T06:20:43.277Z,292.50
2018-05-01T06:21:43.424Z,331.88
2018-05-01T06:22:43.575Z,343.13
2018-05-01T06:23:43.724Z,320.63
2018-05-01T06:24:43.874Z,303.75
2018-05-01T06:25:44.025Z,303.75
2018-05-01T06:26:44.172Z,326.25
2018-05-01T06:27:44.322Z,331.88
2018-05-01T06:28:44.472Z,292.50
2018-05-01T06:29:44.620Z,281.25
2018-05-01T06:30:44.771Z,315.00
2018-05-01T06:31:44.921Z,348.75
2018-05-01T06:32:45.067Z,382.50
2018-05-01T06:33:45.216Z,405.00
2018-05-01T06:34:45.367Z,365.63
2018-05-01T06:35:45.516Z,348.75
2018-05-01T06:36:45.665Z,348.75
2018-05-01T06:37:45.816Z,388.13
2018-05-01T06:38:45.967Z,416.25
2018-05-01T06:39:46.117Z,382.50
2018-05-01T06:40:46.266Z,371.25
2018-05-01T06:41:46.414Z,376.88
2018-05-01T06:42:46.564Z,483.75
2018-05-01T06:43:46.715Z,371.25
2018-05-01T06:44:46.863Z,360.00
2018-05-01T06:45:47.013Z,433.13
2018-05-01T06:46:47.168Z,438.75
2018-05-01T06:47:47.311Z,427.50
2018-05-01T06:48:47.461Z,393.75
2018-05-01T06:49:47.611Z,393.75
2018-05-01T06:50:47.777Z,416.25
2018-05-01T06:51:47.901Z,466.88
2018-05-01T06:52:48.045Z,461.25
2018-05-01T06:53:48.192Z,455.63
2018-05-01T06:54:48.345Z,489.38
2018-05-01T06:55:48.493Z,500.63
2018-05-01T06:56:48.635Z,466.88
2018-05-01T06:57:48.866Z,444.38
2018-05-01T06:58:48.936Z,466.88
2018-05-01T06:59:49.085Z,461.25
2018-05-01T07:00:49.231Z,416.25
2018-05-01T07:01:49.383Z,348.75
2018-05-01T07:02:49.531Z,343.13
2018-05-01T07:03:49.676Z,365.63
2018-05-01T07:04:49.821Z,399.38
2018-05-01T07:05:49.968Z,427.50
2018-05-01T07:06:50.133Z,455.63
2018-05-01T07:07:50.260Z,455.63
2018-05-01T07:08:50.411Z,438.75
2018-05-01T07:09:50.562Z,410.63
2018-05-01T07:10:50.709Z,416.25
2018-05-01T07:11:50.866Z,438.75
2018-05-01T07:12:51.006Z,433.13
2018-05-01T07:13:51.151Z,410.63
2018-05-01T07:14:51.320Z,365.63
2018-05-01T07:15:51.490Z,320.63
2018-05-01T07:16:51.593Z,292.50
2018-05-01T07:17:51.740Z,286.88
2018-05-01T07:18:51.887Z,286.88
2018-05-01T07:19:52.037Z,315.00
2018-05-01T07:20:52.193Z,326.25
2018-05-01T07:21:52.340Z,286.88
2018-05-01T07:22:52.492Z,247.50
2018-05-01T07:23:52.640Z,247.50
2018-05-01T07:24:52.936Z,264.38
2018-05-01T07:25:52.933Z,281.25
2018-05-01T07:26:53.080Z,247.50
2018-05-01T07:27:53.289Z,241.88
2018-05-01T07:28:53.400Z,236.25
2018-05-01T07:29:53.773Z,270.00
2018-05-01T07:30:53.667Z,331.88
2018-05-01T07:31:53.819Z,360.00
2018-05-01T07:32:53.970Z,360.00
2018-05-01T07:33:54.113Z,354.38
2018-05-01T07:34:54.263Z,315.00
2018-05-01T07:35:54.413Z,281.25
2018-05-01T07:36:54.561Z,264.38
2018-05-01T07:37:54.705Z,275.63
2018-05-01T07:38:54.854Z,292.50
2018-05-01T07:39:55.005Z,281.25
2018-05-01T07:40:55.158Z,298.13
2018-05-01T07:41:55.307Z,320.63
2018-05-01T07:42:55.458Z,337.50
2018-05-01T07:43:55.606Z,343.13
2018-05-01T07:44:55.758Z,360.00
2018-05-01T07:45:55.910Z,348.75
2018-05-01T07:46:56.090Z,303.75
2018-05-01T07:47:56.247Z,315.00
2018-05-01T07:48:56.394Z,376.88
2018-05-01T07:49:56.544Z,427.50
2018-05-01T07:50:56.699Z,450.00
2018-05-01T07:51:56.845Z,466.88
2018-05-01T07:52:56.994Z,472.50
2018-05-01T07:53:57.147Z,466.88
2018-05-01T07:54:57.293Z,461.25
2018-05-01T07:55:57.447Z,461.25
2018-05-01T07:56:57.594Z,455.63
2018-05-01T07:57:57.746Z,438.75
2018-05-01T07:58:57.896Z,444.38
2018-05-01T07:59:58.061Z,466.88
2018-05-01T08:00:58.216Z,489.38
2018-05-01T08:01:58.357Z,528.75
2018-05-01T08:02:58.507Z,562.50
2018-05-01T08:03:58.658Z,551.25
2018-05-01T08:04:58.810Z,534.38
2018-05-01T08:05:58.958Z,500.63
2018-05-01T08:06:59.162Z,478.13
2018-05-01T08:07:59.275Z,450.00
2018-05-01T08:08:59.422Z,410.63
2018-05-01T08:09:59.570Z,360.00
2018-05-01T08:10:59.721Z,320.63
2018-05-01T08:11:59.897Z,281.25
2018-05-01T08:13:00.021Z,247.50
2018-05-01T08:14:00.166Z,225.00
2018-05-01T08:15:00.317Z,208.13
2018-05-01T08:16:00.467Z,208.13
2018-05-01T08:17:00.614Z,213.75
2018-05-01T08:18:00.762Z,247.50
2018-05-01T08:19:00.912Z,303.75
2018-05-01T08:20:01.075Z,360.00
2018-05-01T08:21:01.226Z,388.13
2018-05-01T08:22:01.367Z,393.75
2018-05-01T08:23:01.523Z,393.75
2018-05-01T08:24:01.660Z,393.75
2018-05-01T08:25:01.833Z,399.38
2018-05-01T08:26:02.014Z,399.38
2018-05-01T08:27:02.259Z,376.88
2018-05-01T08:28:02.280Z,354.38
2018-05-01T08:29:02.546Z,348.75
2018-05-01T08:30:02.584Z,331.88
2018-05-01T08:31:02.750Z,348.75
2018-05-01T08:32:02.911Z,360.00
2018-05-01T08:33:03.106Z,360.00
2018-05-01T08:34:03.333Z,315.00
2018-05-01T08:35:03.479Z,275.63
2018-05-01T08:36:03.559Z,241.88
2018-05-01T08:37:03.796Z,219.38
2018-05-01T08:38:03.923Z,213.75
2018-05-01T08:39:04.035Z,208.13
2018-05-01T08:40:04.163Z,208.13
2018-05-01T08:41:04.269Z,213.75
2018-05-01T08:42:04.305Z,236.25
2018-05-01T08:43:04.498Z,281.25
2018-05-01T08:44:04.709Z,337.50
2018-05-01T08:45:04.813Z,382.50
2018-05-01T08:46:04.937Z,405.00
2018-05-01T08:47:05.075Z,433.13
2018-05-01T08:48:05.200Z,506.25
2018-05-01T08:49:05.456Z,545.63
2018-05-01T08:50:05.487Z,540.00
2018-05-01T08:51:05.628Z,556.88
2018-05-01T08:52:05.723Z,545.63
2018-05-01T08:53:05.908Z,483.75
2018-05-01T08:54:06.042Z,438.75
2018-05-01T08:55:06.166Z,399.38
2018-05-01T08:56:06.273Z,371.25
2018-05-01T08:57:06.412Z,354.38
2018-05-01T08:58:06.547Z,337.50
2018-05-01T08:59:06.715Z,326.25
2018-05-01T09:00:06.817Z,315.00
2018-05-01T09:01:06.949Z,326.25
2018-05-01T09:02:07.137Z,365.63
2018-05-01T09:03:07.318Z,421.88
2018-05-01T09:04:07.486Z,461.25
2018-05-01T09:05:07.628Z,438.75
2018-05-01T09:06:07.787Z,427.50
2018-05-01T09:07:07.910Z,455.63
2018-05-01T09:08:08.027Z,500.63
2018-05-01T09:09:08.172Z,517.50
2018-05-01T09:10:08.291Z,511.88
2018-05-01T09:11:08.460Z,517.50
2018-05-01T09:12:08.644Z,551.25
2018-05-01T09:13:08.815Z,585.00
2018-05-01T09:14:09.010Z,579.38
2018-05-01T09:15:09.170Z,534.38
2018-05-01T09:16:09.365Z,506.25
2018-05-01T09:17:09.520Z,495.00
2018-05-01T09:18:09.773Z,455.63
2018-05-01T09:19:09.820Z,399.38
2018-05-01T09:20:10.015Z,388.13
2018-05-01T09:21:10.156Z,416.25
2018-05-01T09:22:10.315Z,466.88
2018-05-01T09:23:10.475Z,545.63
2018-05-01T09:24:10.581Z,646.88
2018-05-01T09:25:10.712Z,613.13
2018-05-01T09:26:10.849Z,573.75
2018-05-01T09:27:10.951Z,703.13
2018-05-01T09:28:11.097Z,793.13
2018-05-01T09:29:11.200Z,658.13
2018-05-01T09:30:11.321Z,714.38
2018-05-01T09:31:11.450Z,646.88
2018-05-01T09:32:11.591Z,703.13
2018-05-01T09:33:11.773Z,922.50
2018-05-01T09:34:11.934Z,697.50
2018-05-01T09:35:12.117Z,663.75
2018-05-01T09:36:12.283Z,607.50
2018-05-01T09:37:12.454Z,534.38
2018-05-01T09:38:12.622Z,478.13
2018-05-01T09:39:12.696Z,438.75
2018-05-01T09:40:12.949Z,433.13
2018-05-01T09:41:13.092Z,427.50
2018-05-01T09:42:13.133Z,421.88
2018-05-01T09:43:13.297Z,393.75
2018-05-01T09:44:13.463Z,376.88
2018-05-01T09:45:13.678Z,376.88
2018-05-01T09:46:13.761Z,382.50
2018-05-01T09:47:13.965Z,382.50
2018-05-01T09:48:14.252Z,376.88
2018-05-01T09:49:14.387Z,393.75
2018-05-01T09:50:14.512Z,455.63
2018-05-01T09:51:14.618Z,534.38
2018-05-01T09:52:14.711Z,663.75
2018-05-01T09:53:14.870Z,708.75
2018-05-01T09:54:14.954Z,663.75
2018-05-01T09:55:15.112Z,658.13
2018-05-01T09:56:15.236Z,641.25
2018-05-01T09:57:15.392Z,613.13
2018-05-01T09:58:15.515Z,579.38
2018-05-01T09:59:15.663Z,551.25
2018-05-01T10:00:15.826Z,534.38
2018-05-01T10:01:15.934Z,534.38
2018-05-01T10:02:16.083Z,568.13
2018-05-01T10:03:16.248Z,596.25
2018-05-01T10:04:16.396Z,551.25
2018-05-01T10:05:16.578Z,562.50
2018-05-01T10:06:16.774Z,556.88
2018-05-01T10:07:16.928Z,720.00
2018-05-01T10:08:17.070Z,708.75
2018-05-01T10:09:17.177Z,697.50
2018-05-01T10:10:17.326Z,489.38
2018-05-01T10:11:17.432Z,495.00
2018-05-01T10:12:17.656Z,748.13
2018-05-01T10:13:17.716Z,787.50
2018-05-01T10:14:17.822Z,843.75
2018-05-01T10:15:17.958Z,888.75
2018-05-01T10:16:18.113Z,866.25
2018-05-01T10:17:18.289Z,826.88
2018-05-01T10:18:18.470Z,781.88
2018-05-01T10:19:18.560Z,748.13
2018-05-01T10:20:18.795Z,720.00
2018-05-01T10:21:18.900Z,714.38
2018-05-01T10:22:19.056Z,731.25
2018-05-01T10:23:19.135Z,759.38
2018-05-01T10:24:19.369Z,736.88
2018-05-01T10:25:19.517Z,810.00
2018-05-01T10:26:19.628Z,798.75
2018-05-01T10:27:19.784Z,798.75
2018-05-01T10:28:19.892Z,843.75
2018-05-01T10:29:20.028Z,894.38
2018-05-01T10:30:20.189Z,573.75
2018-05-01T10:31:20.304Z,765.00
2018-05-01T10:32:21.344Z,708.75
2018-05-01T10:33:20.590Z,433.13
2018-05-01T10:34:20.730Z,691.88
2018-05-01T10:35:20.847Z,714.38
2018-05-01T10:36:20.991Z,765.00
2018-05-01T10:37:21.126Z,776.25
2018-05-01T10:38:21.262Z,607.50
2018-05-01T10:39:21.393Z,596.25
2018-05-01T10:40:21.546Z,832.50
2018-05-01T10:41:21.645Z,810.00
2018-05-01T10:42:21.758Z,748.13
2018-05-01T10:43:21.867Z,686.25
2018-05-01T10:44:22.007Z,511.88
2018-05-01T10:45:22.111Z,714.38
2018-05-01T10:46:22.167Z,793.13
2018-05-01T10:47:22.370Z,832.50
2018-05-01T10:48:22.546Z,883.13
2018-05-01T10:49:22.869Z,900.00
2018-05-01T10:50:22.947Z,630.00
2018-05-01T10:51:22.984Z,877.50
2018-05-01T10:52:23.153Z,849.38
2018-05-01T10:53:23.311Z,860.63
2018-05-01T10:54:23.462Z,855.00
2018-05-01T10:55:23.613Z,787.50
2018-05-01T10:56:23.771Z,804.38
2018-05-01T10:57:23.931Z,821.25
2018-05-01T10:58:24.092Z,675.00
2018-05-01T10:59:24.244Z,883.13
2018-05-01T11:00:24.388Z,860.63
2018-05-01T11:01:24.553Z,787.50
2018-05-01T11:02:24.703Z,725.63
2018-05-01T11:03:24.868Z,601.88
2018-05-01T11:04:25.041Z,686.25
2018-05-01T11:05:25.185Z,703.13
2018-05-01T11:06:25.333Z,742.50
2018-05-01T11:07:25.491Z,556.88
2018-05-01T11:08:25.726Z,483.75
2018-05-01T11:09:25.819Z,787.50
2018-05-01T11:10:25.971Z,793.13
2018-05-01T11:11:26.136Z,787.50
2018-05-01T11:12:26.291Z,765.00
2018-05-01T11:13:26.444Z,765.00
2018-05-01T11:14:26.598Z,613.13
2018-05-01T11:15:26.761Z,511.88
2018-05-01T11:16:26.920Z,641.25
2018-05-01T11:17:27.141Z,675.00
2018-05-01T11:18:27.234Z,472.50
2018-05-01T11:19:27.389Z,641.25
2018-05-01T11:20:27.544Z,641.25
2018-05-01T11:21:27.703Z,641.25
2018-05-01T11:22:27.855Z,646.88
2018-05-01T11:23:28.015Z,641.25
2018-05-01T11:24:28.171Z,618.75
2018-05-01T11:25:28.322Z,613.13
2018-05-01T11:26:28.494Z,618.75
2018-05-01T11:27:28.637Z,624.38
2018-05-01T11:28:28.872Z,618.75
2018-05-01T11:29:28.940Z,618.75
2018-05-01T11:30:29.096Z,618.75
2018-05-01T11:31:29.267Z,613.13
2018-05-01T11:32:29.390Z,601.88
2018-05-01T11:33:29.554Z,613.13
2018-05-01T11:34:29.695Z,635.63
2018-05-01T11:35:29.847Z,680.63
2018-05-01T11:36:30.062Z,523.13
2018-05-01T11:37:30.150Z,579.38
2018-05-01T11:38:30.301Z,658.13
2018-05-01T11:39:30.451Z,337.50
2018-05-01T11:40:30.601Z,635.63
2018-05-01T11:41:30.757Z,630.00
2018-05-01T11:42:30.912Z,641.25
2018-05-01T11:43:31.062Z,686.25
2018-05-01T11:44:31.223Z,691.88
2018-05-01T11:45:31.378Z,686.25
2018-05-01T11:46:31.635Z,686.25
2018-05-01T11:47:31.678Z,708.75
2018-05-01T11:48:31.833Z,556.88
2018-05-01T11:49:31.984Z,720.00
2018-05-01T11:50:32.134Z,495.00
2018-05-01T11:51:32.292Z,765.00
2018-05-01T11:52:32.440Z,765.00
2018-05-01T11:53:32.618Z,765.00
2018-05-01T11:54:32.769Z,748.13
2018-05-01T11:55:32.922Z,748.13
2018-05-01T11:56:33.080Z,748.13
2018-05-01T11:57:33.235Z,770.63
2018-05-01T11:58:33.387Z,742.50
2018-05-01T11:59:33.545Z,770.63
2018-05-01T12:00:33.697Z,770.63
2018-05-01T12:01:33.858Z,787.50
2018-05-01T12:02:34.097Z,798.75
2018-05-01T12:03:34.162Z,562.50
2018-05-01T12:04:34.349Z,815.63
2018-05-01T12:05:34.469Z,810.00
2018-05-01T12:06:34.627Z,815.63
2018-05-01T12:07:34.775Z,810.00
2018-05-01T12:08:34.925Z,810.00
2018-05-01T12:09:35.079Z,765.00
2018-05-01T12:10:35.317Z,500.63
2018-05-01T12:11:35.384Z,753.75
2018-05-01T12:12:35.540Z,731.25
2018-05-01T12:13:35.692Z,410.63
2018-05-01T12:14:35.848Z,466.88
2018-05-01T12:15:35.999Z,534.38
2018-05-01T12:16:36.155Z,641.25
2018-05-01T12:17:36.310Z,641.25
2018-05-01T12:18:36.481Z,646.88
2018-05-01T12:19:36.618Z,658.13
2018-05-01T12:20:36.772Z,686.25
2018-05-01T12:21:36.924Z,686.25
2018-05-01T12:22:37.081Z,675.00
2018-05-01T12:23:37.244Z,433.13
2018-05-01T12:24:37.393Z,658.13
2018-05-01T12:25:37.546Z,663.75
2018-05-01T12:26:37.706Z,658.13
2018-05-01T12:27:37.861Z,646.88
2018-05-01T12:28:38.011Z,646.88
2018-05-01T12:29:38.187Z,635.63
2018-05-01T12:30:38.323Z,607.50
2018-05-01T12:31:38.475Z,596.25
2018-05-01T12:32:38.637Z,579.38
2018-05-01T12:33:38.807Z,568.13
2018-05-01T12:34:38.970Z,568.13
2018-05-01T12:35:39.123Z,568.13
2018-05-01T12:36:39.366Z,568.13
2018-05-01T12:37:39.442Z,568.13
2018-05-01T12:38:39.607Z,579.38
2018-05-01T12:39:39.762Z,590.63
2018-05-01T12:40:39.989Z,596.25
2018-05-01T12:41:40.026Z,607.50
2018-05-01T12:42:40.181Z,601.88
2018-05-01T12:43:40.338Z,590.63
2018-05-01T12:44:40.498Z,585.00
2018-05-01T12:45:40.731Z,585.00
2018-05-01T12:46:40.806Z,590.63
2018-05-01T12:47:40.974Z,590.63
2018-05-01T12:48:41.127Z,590.63